Time;durP1;ratioP1;P1;durP2;ratioP2;P2;SDS_P1;SDS_P2;PMS_P1;PMS_P2;Temp;Humidity;BMP_temperature;BMP_pressure;BME280_temperature;BME280_humidity;BME280_pressure;Samples;Min_cycle;Max_cycle;Signal;HPM_P1;HPM_P2
2023/07/06 00:00:06;;;;;;;5.28;2.40;;;;;;;20.82;48.47;101388.53;4179151;28;20048;-62
2023/07/06 00:02:07;;;;;;;5.15;2.40;;;;;;;20.81;48.36;101384.13;4179913;28;20077;-61
2023/07/06 00:04:15;;;;;;;5.07;2.53;;;;;;;20.81;48.46;101390.31;4180033;28;20664;-62
2023/07/06 00:06:17;;;;;;;5.43;2.50;;;;;;;20.80;48.66;101388.59;4178509;28;20128;-61
2023/07/06 00:08:20;;;;;;;4.95;2.45;;;;;;;20.80;48.61;101383.25;4179872;28;20045;-61
2023/07/06 00:10:22;;;;;;;4.97;2.47;;;;;;;20.80;48.50;101387.75;4178520;28;20077;-62
2023/07/06 00:12:29;;;;;;;4.90;2.30;;;;;;;20.78;48.36;101387.00;4178874;28;20132;-61
2023/07/06 00:14:30;;;;;;;5.78;2.50;;;;;;;20.79;48.29;101386.03;4180039;28;20416;-62
2023/07/06 00:16:33;;;;;;;4.65;2.15;;;;;;;20.75;48.63;101388.06;4180001;28;20128;-62
2023/07/06 00:18:35;;;;;;;4.57;2.50;;;;;;;20.77;48.37;101388.81;4178508;28;20049;-62
2023/07/06 00:20:38;;;;;;;5.13;2.30;;;;;;;20.77;48.46;101395.97;4178512;28;20051;-62
2023/07/06 00:22:44;;;;;;;5.05;2.67;;;;;;;20.77;48.38;101396.84;4180047;28;20075;-62
2023/07/06 00:24:51;;;;;;;4.72;2.35;;;;;;;20.77;48.75;101395.97;4180154;28;20106;-62
2023/07/06 00:26:53;;;;;;;4.82;2.22;;;;;;;20.76;48.76;101388.94;4179871;28;20041;-62
2023/07/06 00:28:55;;;;;;;4.72;2.30;;;;;;;20.75;48.66;101396.09;4179712;28;20483;-62
2023/07/06 00:31:08;;;;;;;6.28;2.70;;;;;;;20.75;48.69;101396.09;4178926;28;20487;-61
2023/07/06 00:33:13;;;;;;;5.55;2.53;;;;;;;20.73;48.60;101398.03;4179938;28;20049;-62
2023/07/06 00:35:20;;;;;;;5.57;2.55;;;;;;;20.73;48.83;101398.03;4179117;28;20595;-62
2023/07/06 00:37:26;;;;;;;5.30;2.42;;;;;;;20.74;48.57;101403.25;4179758;28;20132;-62
2023/07/06 00:39:28;;;;;;;5.13;2.50;;;;;;;20.74;48.44;101397.03;4179723;28;20045;-61
2023/07/06 00:41:31;;;;;;;;;;;;;;;20.73;48.42;101398.03;4178996;28;20048;-62
2023/07/06 00:43:52;;;;;;;5.57;2.60;;;;;;;20.71;48.66;101400.75;4179674;28;20011;-61
2023/07/06 00:46:03;;;;;;;4.32;2.25;;;;;;;20.71;48.86;101397.22;4179763;28;20531;-62
2023/07/06 00:48:22;;;;;;;5.00;2.40;;;;;;;20.70;48.80;101401.72;4179539;28;20049;-62
2023/07/06 00:50:28;;;;;;;4.63;2.20;;;;;;;20.70;48.61;101403.53;4178366;28;20067;-62
2023/07/06 00:52:30;;;;;;;4.93;2.42;;;;;;;20.70;48.78;101399.03;4179418;28;20048;-61
2023/07/06 00:54:35;;;;;;;;;;;;;;;20.69;48.57;101401.81;4180005;28;20065;-62
2023/07/06 00:56:40;;;;;;;5.97;2.70;;;;;;;20.68;48.57;101400.09;4179810;28;20011;-61
2023/07/06 00:58:45;;;;;;;4.72;2.50;;;;;;;20.68;48.54;101400.97;4179670;28;20106;-62
2023/07/06 01:00:47;;;;;;;4.35;2.50;;;;;;;20.68;48.67;101403.66;4181061;28;20049;-62
2023/07/06 01:02:52;;;;;;;5.20;2.80;;;;;;;20.68;48.51;101408.13;4182994;28;20514;-62
2023/07/06 01:04:54;;;;;;;4.85;2.42;;;;;;;20.68;48.62;101410.78;4197791;28;20067;-62
2023/07/06 01:06:56;;;;;;;5.00;2.60;;;;;;;20.68;48.91;101410.78;4181280;28;20052;-62
2023/07/06 01:09:00;;;;;;;5.78;2.58;;;;;;;20.66;48.89;101408.22;4182769;28;20545;-62
2023/07/06 01:11:02;;;;;;;5.57;2.40;;;;;;;20.66;48.88;101418.94;4181270;28;20053;-62
2023/07/06 01:13:04;;;;;;;4.93;2.28;;;;;;;20.66;48.57;101408.22;4182541;28;20049;-62
2023/07/06 01:15:09;;;;;;;5.13;2.50;;;;;;;20.65;48.52;101406.50;4182619;28;20397;-62
2023/07/06 01:17:18;;;;;;;5.85;2.65;;;;;;;20.63;48.75;101407.59;4182517;28;20045;-62
2023/07/06 01:19:57;;;;;;;6.32;2.55;;;;;;;20.65;48.65;101409.19;4182229;28;20120;-62
2023/07/06 01:22:13;;;;;;;4.60;2.60;;;;;;;20.65;48.72;101411.03;4182272;28;20049;-62
2023/07/06 01:24:56;;;;;;;4.45;2.45;;;;;;;20.64;48.65;101412.81;4182428;28;20098;-61
2023/07/06 01:27:17;;;;;;;4.80;2.30;;;;;;;20.61;48.97;101407.69;4182344;28;20052;-62
2023/07/06 01:29:35;;;;;;;6.05;2.55;;;;;;;20.62;48.58;101405.88;4182461;28;20049;-62
2023/07/06 01:31:58;;;;;;;4.93;2.75;;;;;;;20.62;48.85;101408.53;4181270;28;20423;-61
2023/07/06 01:34:20;;;;;;;5.03;2.25;;;;;;;20.61;48.75;101412.16;4182012;28;20065;-62
2023/07/06 01:36:27;;;;;;;;;;;;;;;20.59;48.75;101405.09;4182764;28;20059;-62
2023/07/06 01:38:29;;;;;;;5.10;2.38;;;;;;;20.58;48.73;101405.22;4182264;28;20379;-62
2023/07/06 01:40:31;;;;;;;4.25;2.22;;;;;;;20.58;48.75;101407.88;4181448;28;20049;-62
2023/07/06 01:42:34;;;;;;;4.72;2.30;;;;;;;20.59;48.80;101401.59;4180652;28;20056;-63
2023/07/06 01:44:37;;;;;;;5.15;2.58;;;;;;;20.58;48.88;101402.53;4181029;28;20115;-62
2023/07/06 01:46:46;;;;;;;6.82;2.72;;;;;;;20.57;48.95;101399.03;4182215;28;20474;-62
2023/07/06 01:48:48;;;;;;;4.95;2.40;;;;;;;20.56;48.95;101399.97;4180584;28;20048;-63
2023/07/06 01:50:59;;;;;;;5.85;2.25;;;;;;;20.56;49.03;101394.63;4181044;28;20160;-61
2023/07/06 01:53:17;;;;;;;5.43;2.58;;;;;;;20.57;49.12;101393.69;4181972;28;20052;-61
2023/07/06 01:55:43;;;;;;;4.60;2.60;;;;;;;20.58;48.90;101397.19;4181936;28;20090;-63
2023/07/06 01:58:23;;;;;;;4.60;2.40;;;;;;;20.57;48.80;101395.47;4197208;28;20052;-60
2023/07/06 02:00:29;;;;;;;5.45;2.60;;;;;;;20.55;49.10;101394.75;4180949;28;20045;-62
2023/07/06 02:02:30;;;;;;;6.53;2.85;;;;;;;20.55;49.11;101395.59;4181501;28;20048;-62
2023/07/06 02:04:36;;;;;;;4.68;2.58;;;;;;;20.54;48.85;101393.88;4181691;28;20517;-62
2023/07/06 02:06:38;;;;;;;5.75;2.50;;;;;;;20.55;49.02;101397.41;4182098;28;20087;-62
2023/07/06 02:08:43;;;;;;;6.20;2.75;;;;;;;20.53;48.92;101385.97;4181690;28;20045;-62
2023/07/06 02:10:45;;;;;;;5.30;2.63;;;;;;;20.52;48.88;101390.47;4180141;28;20049;-62
2023/07/06 02:12:48;;;;;;;5.22;2.42;;;;;;;20.52;49.17;101389.59;4181673;28;20049;-61
2023/07/06 02:14:51;;;;;;;5.43;2.55;;;;;;;20.51;49.13;101386.06;4180536;28;20539;-61
2023/07/06 02:16:52;;;;;;;6.15;2.65;;;;;;;20.46;49.23;101380.16;4181272;28;20052;-62
2023/07/06 02:18:56;;;;;;;6.63;2.70;;;;;;;20.51;49.03;101391.41;4181649;28;20049;-61
2023/07/06 02:20:58;;;;;;;5.05;2.40;;;;;;;20.48;48.89;101386.28;4180448;28;20073;-61
2023/07/06 02:23:00;;;;;;;4.78;2.75;;;;;;;20.50;49.05;101391.50;4181403;28;20052;-61
2023/07/06 02:25:03;;;;;;;4.88;2.70;;;;;;;20.51;49.20;101385.19;4181408;28;20056;-62
2023/07/06 02:27:05;;;;;;;5.20;2.88;;;;;;;20.50;48.94;101388.81;4180312;28;20080;-64
2023/07/06 02:29:07;;;;;;;;;;;;;;;20.48;48.95;101380.94;4181848;28;20114;-61
2023/07/06 02:31:09;;;;;;;6.15;3.00;;;;;;;20.47;49.27;101389.06;4180117;28;19927;-62
2023/07/06 02:33:10;;;;;;;6.15;2.58;;;;;;;20.48;49.15;101388.09;4181164;28;20045;-62
2023/07/06 02:35:12;;;;;;;5.65;2.85;;;;;;;20.48;48.96;101388.09;4181337;28;20119;-61
2023/07/06 02:37:14;;;;;;;5.72;2.83;;;;;;;20.46;48.96;101382.00;4181129;28;20123;-61
2023/07/06 02:39:16;;;;;;;5.40;2.70;;;;;;;20.47;48.90;101389.06;4181158;28;20045;-61
2023/07/06 02:41:17;;;;;;;6.55;3.00;;;;;;;20.47;48.87;101386.38;4180035;28;20053;-63
2023/07/06 02:43:19;;;;;;;5.43;2.83;;;;;;;20.46;48.96;101385.50;4181244;28;20400;-62
2023/07/06 02:45:21;;;;;;;5.72;3.08;;;;;;;20.46;48.84;101382.84;4181229;28;20365;-63
2023/07/06 02:47:23;;;;;;;6.25;3.17;;;;;;;20.43;49.22;101381.22;4180906;28;20055;-60
2023/07/06 02:49:25;;;;;;;;;;;;;;;20.43;49.15;101391.91;4181487;28;20045;-61
2023/07/06 02:51:29;;;;;;;5.60;2.90;;;;;;;20.42;49.31;101392.03;4180065;28;19921;-61
2023/07/06 02:53:31;;;;;;;6.05;3.13;;;;;;;20.43;49.38;101388.41;4181015;28;20048;-62
2023/07/06 02:55:32;;;;;;;7.18;3.20;;;;;;;20.43;49.30;101394.59;4180967;28;20048;-63
2023/07/06 02:57:34;;;;;;;5.78;2.97;;;;;;;20.43;49.37;101399.94;4180987;28;20041;-62
2023/07/06 02:59:37;;;;;;;6.10;3.28;;;;;;;20.43;49.30;101399.09;4181009;28;20072;-62
2023/07/06 03:01:38;;;;;;;5.40;2.80;;;;;;;20.42;49.00;101394.69;4179681;28;20474;-62
2023/07/06 03:03:40;;;;;;;;;;;;;;;20.42;49.33;101400.88;4181362;28;20076;-62
2023/07/06 03:05:46;;;;;;;7.07;3.00;;;;;;;20.41;49.13;101401.00;4180905;28;20400;-62
2023/07/06 03:07:52;;;;;;;5.82;3.03;;;;;;;20.41;49.10;101396.53;4180744;28;20049;-62
2023/07/06 03:09:54;;;;;;;6.18;3.08;;;;;;;20.41;49.45;101395.66;4180636;28;20048;-62
2023/07/06 03:11:56;;;;;;;5.80;3.10;;;;;;;20.40;49.16;101400.16;4179659;28;20128;-62
2023/07/06 03:13:59;;;;;;;5.40;2.90;;;;;;;20.39;49.42;101403.78;4180876;28;20049;-62
2023/07/06 03:16:03;;;;;;;5.82;3.20;;;;;;;20.38;49.19;101401.22;4180461;28;20045;-62
2023/07/06 03:18:05;;;;;;;6.65;3.33;;;;;;;20.39;49.16;101390.41;4180626;28;20114;-63
2023/07/06 03:20:15;;;;;;;5.45;3.10;;;;;;;20.39;49.17;101401.09;4180359;28;20051;-62
2023/07/06 03:22:17;;;;;;;7.15;3.28;;;;;;;20.40;49.26;101401.94;4179531;28;20080;-61
2023/07/06 03:24:18;;;;;;;5.43;3.10;;;;;;;20.37;49.10;101394.16;4180582;28;20049;-64
2023/07/06 03:26:21;;;;;;;6.47;3.53;;;;;;;20.39;49.32;101401.09;4180547;28;20040;-62
2023/07/06 03:28:23;;;;;;;7.20;3.30;;;;;;;20.37;48.96;101403.00;4179215;28;20057;-62
2023/07/06 03:30:28;;;;;;;;;;;;;;;20.37;49.41;101408.34;4179733;28;20041;-62
2023/07/06 03:32:37;;;;;;;6.50;3.40;;;;;;;20.35;49.41;101407.63;4180267;28;19927;-62
2023/07/06 03:34:38;;;;;;;6.93;3.42;;;;;;;20.35;49.23;101396.94;4180259;28;20041;-62
2023/07/06 03:36:40;;;;;;;6.43;3.40;;;;;;;20.35;49.40;101402.28;4180458;28;20068;-62
2023/07/06 03:38:42;;;;;;;5.60;3.42;;;;;;;20.34;49.20;101408.56;4180290;28;20073;-62
2023/07/06 03:40:48;;;;;;;6.60;3.55;;;;;;;20.35;49.07;101399.59;4178238;28;20080;-62
2023/07/06 03:42:53;;;;;;;6.10;3.28;;;;;;;20.34;49.47;101402.34;4180370;28;20044;-62
2023/07/06 03:44:55;;;;;;;7.07;3.30;;;;;;;20.34;49.61;101411.25;4179942;28;20617;-62
2023/07/06 03:46:58;;;;;;;6.57;3.20;;;;;;;20.34;49.20;101399.69;4180232;28;20065;-62
2023/07/06 03:49:03;;;;;;;6.47;3.05;;;;;;;20.33;49.29;101398.84;4180111;28;20079;-61
2023/07/06 03:51:07;;;;;;;5.25;3.00;;;;;;;20.33;49.32;101403.31;4179171;28;20048;-61
2023/07/06 03:53:10;;;;;;;5.68;3.20;;;;;;;20.32;49.15;101399.78;4180027;28;20452;-61
2023/07/06 03:55:19;;;;;;;6.82;3.40;;;;;;;20.32;49.51;101405.13;4179958;28;20064;-62
2023/07/06 03:57:22;;;;;;;6.15;3.30;;;;;;;20.32;49.35;101399.78;4179783;28;20072;-62
2023/07/06 03:59:23;;;;;;;5.93;3.00;;;;;;;20.33;49.57;101403.31;4179739;28;20494;-61
2023/07/06 04:01:31;;;;;;;6.13;3.15;;;;;;;20.33;49.25;101404.19;4179267;28;20119;-61
2023/07/06 04:03:33;;;;;;;5.55;3.00;;;;;;;20.31;49.24;101400.75;4180063;28;20041;-62
2023/07/06 04:05:38;;;;;;;7.05;3.28;;;;;;;20.32;49.30;101412.31;4179146;28;20071;-60
2023/07/06 04:07:41;;;;;;;5.30;3.00;;;;;;;20.31;49.29;101408.75;4180003;28;20388;-62
2023/07/06 04:09:44;;;;;;;5.70;2.97;;;;;;;20.31;49.56;101407.91;4179895;28;20068;-61
2023/07/06 04:11:45;;;;;;;6.07;3.40;;;;;;;20.31;49.14;101407.91;4178705;28;20057;-62
2023/07/06 04:13:47;;;;;;;6.80;3.20;;;;;;;20.29;49.67;101413.34;4179549;28;20075;-61
2023/07/06 04:15:51;;;;;;;;;;;;;;;20.29;49.34;101416.00;4178964;28;20049;-61
2023/07/06 04:17:54;;;;;;;6.10;3.30;;;;;;;20.29;49.66;101415.16;4179664;28;20284;-61
2023/07/06 04:19:56;;;;;;;;;;;;;;;20.28;49.52;101422.34;4180383;28;20049;-62
2023/07/06 04:21:57;;;;;;;5.47;2.97;;;;;;;20.26;49.32;101417.06;4178876;28;20318;-61
2023/07/06 04:23:59;;;;;;;6.40;3.28;;;;;;;20.29;49.53;101417.84;4179945;28;20098;-61
2023/07/06 04:26:01;;;;;;;5.97;3.08;;;;;;;20.29;49.58;101416.00;4179726;28;20127;-61
2023/07/06 04:28:05;;;;;;;;;;;;;;;20.27;49.19;101417.94;4179896;28;20416;-61
2023/07/06 04:30:08;;;;;;;6.18;3.03;;;;;;;20.26;49.35;101411.72;4179806;28;20358;-61
2023/07/06 04:32:11;;;;;;;6.35;3.28;;;;;;;20.26;49.61;101406.38;4177754;28;20045;-61
2023/07/06 04:34:14;;;;;;;5.25;3.05;;;;;;;20.28;49.34;101414.31;4181501;28;20522;-62
2023/07/06 04:36:17;;;;;;;5.88;2.88;;;;;;;20.26;49.60;101411.72;4183068;28;20139;-61
2023/07/06 04:38:21;;;;;;;5.03;2.90;;;;;;;20.26;49.59;101409.06;4183194;28;20059;-61
2023/07/06 04:40:26;;;;;;;6.82;3.25;;;;;;;20.26;49.40;101413.56;4182754;28;20041;-62
2023/07/06 04:42:28;;;;;;;8.40;3.20;;;;;;;20.26;49.34;101418.91;4182646;28;20133;-62
2023/07/06 04:44:30;;;;;;;5.43;3.20;;;;;;;20.25;49.73;101417.19;4183042;28;20063;-62
2023/07/06 04:46:31;;;;;;;5.40;2.80;;;;;;;20.26;49.41;101416.22;4183008;28;20072;-61
2023/07/06 04:48:33;;;;;;;6.43;3.05;;;;;;;20.25;49.82;101417.19;4182814;28;20059;-61
2023/07/06 04:50:37;;;;;;;5.35;2.80;;;;;;;20.23;49.56;101417.28;4182157;28;20045;-62
2023/07/06 04:52:39;;;;;;;7.00;3.17;;;;;;;20.26;49.64;101421.56;4182697;28;20492;-62
2023/07/06 04:54:41;;;;;;;5.53;2.65;;;;;;;20.26;49.58;101424.25;4182994;28;20492;-61
2023/07/06 04:56:42;;;;;;;6.80;3.03;;;;;;;20.26;49.59;101422.41;4182461;28;20049;-61
2023/07/06 04:58:45;;;;;;;6.40;2.95;;;;;;;20.24;49.74;101424.34;4182771;28;20437;-62
2023/07/06 05:00:48;;;;;;;5.60;2.90;;;;;;;20.25;49.60;101418.03;4182037;28;20044;-62
2023/07/06 05:03:02;;;;;;;6.32;3.10;;;;;;;20.27;49.57;101428.63;4182676;28;20072;-62
2023/07/06 05:05:05;;;;;;;5.63;2.90;;;;;;;20.26;49.48;101421.56;4182877;28;20480;-61
2023/07/06 05:07:07;;;;;;;5.40;2.95;;;;;;;20.27;49.78;101425.97;4182734;28;20107;-60
2023/07/06 05:09:09;;;;;;;6.85;3.45;;;;;;;20.26;49.51;101425.09;4182558;28;20056;-61
2023/07/06 05:11:11;;;;;;;4.95;2.42;;;;;;;20.25;49.72;101427.88;4181037;28;20055;-60
2023/07/06 05:13:13;;;;;;;;;;;;;;;20.26;49.54;101429.59;4182971;28;20048;-61
2023/07/06 05:15:15;;;;;;;5.90;2.83;;;;;;;20.23;49.73;101427.97;4182572;28;19991;-61
2023/07/06 05:17:16;;;;;;;;;;;;;;;20.25;49.61;101433.22;4181934;28;20045;-61
2023/07/06 05:19:18;;;;;;;5.90;2.87;;;;;;;20.25;49.84;101436.72;4182415;28;20366;-61
2023/07/06 05:21:20;;;;;;;5.18;2.50;;;;;;;20.25;49.64;101426.03;4181519;28;20283;-61
2023/07/06 05:23:28;;;;;;;6.38;2.85;;;;;;;20.24;49.71;101426.16;4182371;28;20189;-61
2023/07/06 05:25:30;;;;;;;6.40;2.83;;;;;;;20.25;49.88;101434.06;4181033;28;20162;-61
2023/07/06 05:27:33;;;;;;;5.28;2.80;;;;;;;20.26;49.64;101435.78;4182414;28;20041;-61
2023/07/06 05:29:35;;;;;;;6.03;2.60;;;;;;;20.26;49.88;101438.44;4182196;28;20091;-62
2023/07/06 05:31:36;;;;;;;8.75;3.08;;;;;;;20.27;49.78;101433.97;4181253;28;20479;-61
2023/07/06 05:33:38;;;;;;;5.53;2.70;;;;;;;20.26;49.67;101433.09;4182186;28;20072;-62
2023/07/06 05:35:42;;;;;;;5.60;2.78;;;;;;;20.26;49.71;101430.44;4182468;28;20049;-61
2023/07/06 05:37:43;;;;;;;6.10;2.80;;;;;;;20.26;49.81;101435.78;4182187;28;20041;-62
2023/07/06 05:39:45;;;;;;;5.40;2.70;;;;;;;20.26;49.61;101435.78;4181641;28;20052;-61
2023/07/06 05:41:47;;;;;;;5.43;2.47;;;;;;;20.27;49.44;101431.31;4181158;28;20044;-62
2023/07/06 05:43:50;;;;;;;6.75;2.88;;;;;;;20.26;49.48;101438.44;4181984;28;20055;-63
2023/07/06 05:45:51;;;;;;;5.20;2.60;;;;;;;20.26;49.33;101434.94;4181257;28;20162;-62
2023/07/06 05:47:53;;;;;;;5.72;2.60;;;;;;;20.26;49.42;101430.44;4180806;28;20090;-61
2023/07/06 05:49:55;;;;;;;6.72;3.13;;;;;;;20.24;49.39;101439.50;4181864;28;20045;-61
2023/07/06 05:51:57;;;;;;;5.88;2.63;;;;;;;20.26;49.65;101438.44;4181082;28;20495;-62
2023/07/06 05:53:58;;;;;;;6.80;2.58;;;;;;;20.27;49.59;101440.16;4180485;28;20152;-61
2023/07/06 05:56:01;;;;;;;5.65;2.60;;;;;;;20.27;49.77;101437.50;4181824;28;20120;-61
2023/07/06 05:58:03;;;;;;;5.65;2.60;;;;;;;20.27;49.20;101440.16;4181848;28;20069;-62
2023/07/06 06:00:09;;;;;;;4.95;2.50;;;;;;;20.25;49.29;101435.88;4182002;28;20099;-61
2023/07/06 06:02:16;;;;;;;5.03;2.72;;;;;;;20.28;49.20;101443.72;4180691;28;20571;-62
2023/07/06 06:04:18;;;;;;;7.75;2.80;;;;;;;20.27;49.60;101434.81;4181662;28;20094;-61
2023/07/06 06:06:22;;;;;;;4.88;2.40;;;;;;;20.28;49.51;101441.03;4181647;28;20052;-61
2023/07/06 06:08:24;;;;;;;5.50;2.50;;;;;;;20.27;49.35;101442.84;4181965;28;20045;-62
2023/07/06 06:10:26;;;;;;;6.70;2.97;;;;;;;20.27;49.79;101436.66;4180433;28;20189;-62
2023/07/06 06:12:28;;;;;;;6.85;2.85;;;;;;;20.30;49.74;101440.94;4180701;28;20045;-61
2023/07/06 06:14:31;;;;;;;5.38;2.40;;;;;;;20.25;49.51;101436.72;4181723;28;20053;-62
2023/07/06 06:16:33;;;;;;;5.43;2.60;;;;;;;20.30;49.45;101447.13;4181433;28;20052;-62
2023/07/06 06:18:35;;;;;;;;;;;;;;;20.30;49.81;101443.59;4213809;28;20196;-61
2023/07/06 06:20:37;;;;;;;5.23;2.53;;;;;;;20.27;49.60;101458.84;4181562;28;20411;-61
2023/07/06 06:22:40;;;;;;;7.72;2.78;;;;;;;20.31;49.94;101464.00;4180404;28;20296;-61
2023/07/06 06:24:42;;;;;;;5.95;2.42;;;;;;;20.30;49.52;101451.63;4181236;28;20045;-62
2023/07/06 06:26:44;;;;;;;5.25;2.58;;;;;;;20.27;49.73;101456.19;4181332;28;20073;-61
2023/07/06 06:28:47;;;;;;;5.07;2.10;;;;;;;20.30;49.61;101465.81;4181372;28;20124;-62
2023/07/06 06:30:49;;;;;;;5.32;2.45;;;;;;;20.31;49.95;101462.19;4180689;28;20041;-62
2023/07/06 06:32:51;;;;;;;4.22;2.10;;;;;;;20.32;49.54;101460.41;4180992;28;20048;-61
2023/07/06 06:34:52;;;;;;;5.28;2.50;;;;;;;20.31;49.62;101458.69;4181331;28;20048;-62
2023/07/06 06:36:55;;;;;;;5.63;2.20;;;;;;;20.32;50.01;101465.72;4181359;28;20045;-61
2023/07/06 06:38:57;;;;;;;6.20;2.63;;;;;;;20.31;50.01;101461.34;4180808;28;20437;-61
2023/07/06 06:41:02;;;;;;;5.32;2.40;;;;;;;20.31;49.78;101454.19;4180204;28;20041;-61
2023/07/06 06:43:04;;;;;;;5.40;2.40;;;;;;;20.32;49.57;101455.06;4181209;28;20049;-62
2023/07/06 06:45:06;;;;;;;4.43;2.20;;;;;;;20.32;49.70;101463.91;4181103;28;20641;-62
2023/07/06 06:47:08;;;;;;;6.43;2.55;;;;;;;20.30;49.82;101460.47;4181284;28;20049;-62
2023/07/06 06:49:10;;;;;;;5.00;2.35;;;;;;;20.31;49.54;101470.19;4181124;28;20484;-62
2023/07/06 06:51:11;;;;;;;4.82;2.13;;;;;;;20.31;49.46;101466.69;4180093;28;20055;-63
2023/07/06 06:53:13;;;;;;;5.30;2.40;;;;;;;20.30;49.74;101465.81;4180691;28;20053;-61
2023/07/06 06:55:16;;;;;;;3.88;2.08;;;;;;;20.33;49.74;101470.97;4181174;28;20152;-61
2023/07/06 06:57:17;;;;;;;5.28;2.25;;;;;;;20.34;49.50;101469.13;4181082;28;20499;-61
2023/07/06 06:59:19;;;;;;;;;;;;;;;20.36;49.40;101472.59;4181523;28;20056;-61
2023/07/06 07:01:21;;;;;;;4.17;2.17;;;;;;;20.35;49.40;101463.72;4179937;28;19967;-61
2023/07/06 07:03:23;;;;;;;4.95;2.28;;;;;;;20.40;49.27;101476.75;4180715;28;20049;-61
2023/07/06 07:05:25;;;;;;;;;;;;;;;20.40;49.25;101474.97;4181267;28;20094;-61
2023/07/06 07:07:27;;;;;;;5.18;2.22;;;;;;;20.41;49.26;101470.47;4180216;28;19921;-61
2023/07/06 07:09:29;;;;;;;5.45;2.30;;;;;;;20.42;49.55;101474.84;4180831;28;20045;-61
2023/07/06 07:11:30;;;;;;;5.97;2.40;;;;;;;20.46;49.06;101473.69;4179657;28;20140;-61
2023/07/06 07:13:35;;;;;;;5.80;2.55;;;;;;;20.49;49.18;101480.66;4180701;28;20090;-61
2023/07/06 07:15:37;;;;;;;5.63;2.53;;;;;;;20.50;48.81;101479.69;4180426;28;20052;-61
2023/07/06 07:17:39;;;;;;;4.35;1.90;;;;;;;20.49;49.09;101478.84;4179381;28;20049;-59
2023/07/06 07:19:44;;;;;;;4.45;2.00;;;;;;;20.51;48.71;101479.59;4180602;28;20049;-61
2023/07/06 07:21:50;;;;;;;5.18;2.15;;;;;;;20.52;48.70;101478.66;4179212;28;20076;-61
2023/07/06 07:23:52;;;;;;;4.68;2.22;;;;;;;20.53;48.52;101480.34;4179385;28;20080;-61
2023/07/06 07:25:54;;;;;;;6.22;2.22;;;;;;;20.56;48.45;101474.81;4180327;28;20124;-61
2023/07/06 07:27:56;;;;;;;5.63;1.95;;;;;;;20.57;48.61;101472.97;4180422;28;20400;-62
2023/07/06 07:29:58;;;;;;;5.90;2.22;;;;;;;20.58;48.13;101472.03;4180363;28;20083;-60
2023/07/06 07:32:02;;;;;;;5.45;2.17;;;;;;;20.61;48.69;101468.28;4179214;28;20055;-61
2023/07/06 07:34:05;;;;;;;5.82;2.17;;;;;;;20.61;48.11;101462.94;4180273;28;20053;-61
2023/07/06 07:36:09;;;;;;;5.30;2.00;;;;;;;20.62;48.25;101465.53;4178705;28;20083;-61
2023/07/06 07:38:11;;;;;;;5.50;2.08;;;;;;;20.63;47.95;101464.56;4180393;28;20461;-62
2023/07/06 07:40:17;;;;;;;4.55;2.00;;;;;;;20.62;48.34;101468.22;4180091;28;20079;-61
2023/07/06 07:42:19;;;;;;;5.13;2.15;;;;;;;20.65;48.30;101468.00;4194437;28;20041;-60
2023/07/06 07:44:21;;;;;;;4.32;2.08;;;;;;;20.67;47.91;101462.53;4180267;28;20044;-61
2023/07/06 07:46:24;;;;;;;;;;;;;;;20.68;47.97;101461.56;4180515;28;20091;-61
2023/07/06 07:48:27;;;;;;;4.30;2.17;;;;;;;20.68;47.91;101467.78;4178981;28;19959;-61
2023/07/06 07:50:32;;;;;;;4.50;1.95;;;;;;;20.69;47.97;101461.50;4179792;28;20509;-61
2023/07/06 07:52:34;;;;;;;4.07;1.90;;;;;;;20.71;47.85;101464.06;4179018;28;20060;-61
2023/07/06 07:54:36;;;;;;;3.85;2.13;;;;;;;20.72;47.59;101461.31;4180089;28;20083;-61
2023/07/06 07:56:37;;;;;;;4.10;2.05;;;;;;;20.73;47.81;101463.03;4180030;28;20049;-62
2023/07/06 07:58:40;;;;;;;3.90;1.85;;;;;;;20.73;47.63;101457.69;4179983;28;20049;-62
2023/07/06 08:00:58;;;;;;;3.42;1.73;;;;;;;20.75;47.95;101457.56;4180085;28;20049;-62
2023/07/06 08:03:03;;;;;;;4.30;2.05;;;;;;;20.75;47.66;101457.56;4179150;28;20132;-62
2023/07/06 08:05:09;;;;;;;4.10;1.90;;;;;;;20.75;47.75;101460.25;4178112;28;20408;-61
2023/07/06 08:07:11;;;;;;;4.70;2.05;;;;;;;20.77;47.78;101457.47;4179816;28;20416;-62
2023/07/06 08:09:13;;;;;;;4.22;1.90;;;;;;;20.78;47.97;101453.81;4179195;28;20055;-63
2023/07/06 08:11:17;;;;;;;3.78;1.90;;;;;;;20.79;47.65;101459.09;4178815;28;20057;-63
2023/07/06 08:13:20;;;;;;;5.65;2.17;;;;;;;20.79;47.64;101456.41;4179542;28;20068;-63
2023/07/06 08:15:22;;;;;;;5.18;2.20;;;;;;;20.81;47.50;101454.47;4179871;28;20045;-63
2023/07/06 08:17:26;;;;;;;4.10;1.92;;;;;;;20.81;47.57;101451.81;4179636;28;20124;-63
2023/07/06 08:19:28;;;;;;;4.60;1.75;;;;;;;20.82;47.56;101447.34;4179343;28;20073;-62
2023/07/06 08:21:38;;;;;;;4.47;1.90;;;;;;;20.83;47.82;101451.72;4178912;28;20048;-62
2023/07/06 08:24:00;;;;;;;4.70;1.85;;;;;;;20.84;47.62;101453.41;4179761;28;20491;-62
2023/07/06 08:26:04;;;;;;;5.68;1.98;;;;;;;20.84;47.37;101448.94;4179643;28;20091;-63
2023/07/06 08:28:12;;;;;;;4.40;2.00;;;;;;;20.84;47.32;101443.59;4179545;28;20049;-62
2023/07/06 08:30:14;;;;;;;5.45;1.75;;;;;;;20.85;47.71;101441.75;4179787;28;20495;-63
2023/07/06 08:32:19;;;;;;;6.15;2.38;;;;;;;20.84;47.19;101437.38;4178559;28;20577;-62
2023/07/06 08:34:21;;;;;;;5.43;2.03;;;;;;;20.85;47.76;101442.63;4179257;28;20471;-63
2023/07/06 08:36:22;;;;;;;5.05;2.10;;;;;;;20.84;47.42;101437.38;4179647;28;20080;-63
2023/07/06 08:38:24;;;;;;;4.53;2.05;;;;;;;20.86;47.43;101433.66;4179580;28;20161;-63
2023/07/06 08:40:30;;;;;;;5.70;2.10;;;;;;;20.89;47.38;101438.78;4179646;28;20056;-63
2023/07/06 08:42:32;;;;;;;4.45;2.00;;;;;;;20.87;47.56;101437.19;4178800;28;20069;-62
2023/07/06 08:44:33;;;;;;;;;;;;;;;20.89;47.33;101437.94;4179960;28;20068;-62
2023/07/06 08:46:38;;;;;;;5.63;2.17;;;;;;;20.87;47.52;101443.38;4179742;28;20268;-63
2023/07/06 08:48:41;;;;;;;4.70;1.80;;;;;;;20.90;47.71;101439.66;4179356;28;20107;-62
2023/07/06 08:50:44;;;;;;;;;;;;;;;20.93;47.64;101441.25;4180005;28;20124;-63
2023/07/06 08:52:46;;;;;;;4.55;2.10;;;;;;;20.91;46.95;101441.34;4178534;28;19928;-63
2023/07/06 08:54:51;;;;;;;4.93;2.00;;;;;;;20.91;47.15;101438.66;4179457;28;20128;-62
2023/07/06 08:56:53;;;;;;;6.53;2.10;;;;;;;20.93;47.42;101443.94;4179263;28;20048;-63
2023/07/06 08:58:58;;;;;;;5.35;2.15;;;;;;;20.95;47.36;101447.34;4179423;28;20107;-62
2023/07/06 09:01:16;;;;;;;4.88;2.08;;;;;;;20.97;47.26;101440.09;4179523;28;20534;-62
2023/07/06 09:03:23;;;;;;;5.80;2.20;;;;;;;20.96;47.08;101444.59;4179152;28;20049;-62
2023/07/06 09:05:31;;;;;;;5.88;2.30;;;;;;;20.97;47.58;101443.59;4179696;28;20053;-61
2023/07/06 09:07:35;;;;;;;5.70;2.30;;;;;;;20.98;47.10;101449.81;4179159;28;20049;-63
2023/07/06 09:09:39;;;;;;;5.18;2.10;;;;;;;20.97;47.42;101448.09;4179594;28;20045;-61
2023/07/06 09:11:43;;;;;;;4.25;2.10;;;;;;;20.97;47.19;101445.44;4178333;28;20057;-61
2023/07/06 09:13:47;;;;;;;5.05;1.85;;;;;;;20.98;46.96;101442.63;4179339;28;20139;-61
2023/07/06 09:16:00;;;;;;;4.75;2.30;;;;;;;21.01;47.19;101442.44;4178186;28;20487;-61
2023/07/06 09:18:03;;;;;;;5.68;2.28;;;;;;;21.01;46.92;101445.13;4178980;28;20556;-60
2023/07/06 09:20:09;;;;;;;5.72;2.33;;;;;;;21.00;47.13;101454.09;4179458;28;20064;-62
2023/07/06 09:22:11;;;;;;;4.68;1.92;;;;;;;21.00;47.12;101446.06;4181379;28;20174;-60
2023/07/06 09:24:14;;;;;;;5.38;2.20;;;;;;;21.02;46.96;101437.94;4180964;28;20056;-60
2023/07/06 09:26:37;;;;;;;5.07;1.92;;;;;;;21.02;47.20;101441.50;4177095;28;20269;-61
2023/07/06 09:28:39;;;;;;;4.68;2.05;;;;;;;21.01;47.20;101442.44;4181818;28;20053;-61
2023/07/06 09:30:42;;;;;;;5.10;1.88;;;;;;;21.04;46.93;101438.69;4182061;28;20049;-60
2023/07/06 09:32:44;;;;;;;6.50;2.10;;;;;;;21.06;47.24;101437.63;4180601;28;20116;-60
2023/07/06 09:34:51;;;;;;;4.50;1.98;;;;;;;21.08;46.98;101439.34;4181642;28;20059;-60
2023/07/06 09:36:53;;;;;;;6.07;2.30;;;;;;;21.09;46.80;101431.22;4181903;28;20056;-60
2023/07/06 09:39:03;;;;;;;4.75;2.05;;;;;;;21.13;46.70;101434.53;4182001;28;20045;-60
2023/07/06 09:41:19;;;;;;;6.03;2.33;;;;;;;21.16;46.65;101432.50;4181978;28;20041;-60